Boeing 767 operado pela CargoJet sofre tailstrike em Narita

Tripulante a procura de um emprego?

spot_img

Um Boeing 767-300ER(BCF) operado pela companhia aérea cargueira CargoJet Airways, sofreu um tailstrike em Narita, Tokyo, o voo CJT/W8 1328, com destino final Vancouver, Canadá, entretanto durante a decolagem em Narita a aeronave sofreu um tailstrike (quando a cauda da aeronave entra em contato com o solo) enquanto decolava da pista 16R.

Airbus A380 efetuando um Tailstrike durante fase de testes

O controlador de voo foi quem reparou no ocorrido e a pista foi fechada por aproximadamente 30 minutos para inspeção e reparos. Uma marca de 31 metros com aproximadamente 15 centímetro de largura e dois centímetro de profundidade foi encontrada na centerline da pista. A tripulação foi informada por rádio do ocorrido, mas o 767 prosseguiu para Vancounver, Canadá. 6 voos sofreram atrasos.

METAR de Narita quando ocorreu o tailstrike (02:32Z):
RJAA 290230Z 07011KT 030V110 9999 FEW025 SCT030 BKN/// 30/23
Q1012 NOSIG RMK 1CU025 3CU030 A2990=
RJAA 290300Z 09012KT 9999 FEW030 SCT060 BKN/// 30/23 Q1012
NOSIG RMK 1CU030 3SC060 A2990=

Últimas Notícias

Compra e venda de Aeronaves no Brasil e EUA

spot_img

Related articles

Leave a Reply

error: Conteúdo protegido
%d bloggers like this: